sensor_id;sensor_type;location;lat;lon;timestamp;pressure;altitude;pressure_sealevel;temperature;humidity
62632;BME280;48703;51.248;-0.546;2023-02-13T00:02:20;102931;;;6.72;84.55
62632;BME280;48703;51.248;-0.546;2023-02-13T00:05:22;102930;;;6.71;84.58
62632;BME280;48703;51.248;-0.546;2023-02-13T00:08:23;102928;;;6.72;84.59
62632;BME280;48703;51.248;-0.546;2023-02-13T00:11:25;102926;;;6.70;84.67
62632;BME280;48703;51.248;-0.546;2023-02-13T00:14:27;102921;;;6.70;84.75
62632;BME280;48703;51.248;-0.546;2023-02-13T00:17:31;102918;;;6.69;84.78
62632;BME280;48703;51.248;-0.546;2023-02-13T00:20:31;102915;;;6.67;84.91
62632;BME280;48703;51.248;-0.546;2023-02-13T00:23:33;102917;;;6.66;85.05
62632;BME280;48703;51.248;-0.546;2023-02-13T00:26:35;102919;;;6.66;85.20
62632;BME280;48703;51.248;-0.546;2023-02-13T00:29:37;102914;;;6.64;85.13
62632;BME280;48703;51.248;-0.546;2023-02-13T00:32:39;102907;;;6.63;85.20
62632;BME280;48703;51.248;-0.546;2023-02-13T00:35:41;102907;;;6.63;85.01
62632;BME280;48703;51.248;-0.546;2023-02-13T00:38:43;102913;;;6.62;84.95
62632;BME280;48703;51.248;-0.546;2023-02-13T00:41:45;102907;;;6.61;85.00
62632;BME280;48703;51.248;-0.546;2023-02-13T00:44:47;102907;;;6.60;85.05
62632;BME280;48703;51.248;-0.546;2023-02-13T00:47:48;102904;;;6.59;84.94
62632;BME280;48703;51.248;-0.546;2023-02-13T00:50:50;102898;;;6.59;84.63
62632;BME280;48703;51.248;-0.546;2023-02-13T00:53:52;102901;;;6.57;84.84
62632;BME280;48703;51.248;-0.546;2023-02-13T00:56:54;102899;;;6.56;85.03
62632;BME280;48703;51.248;-0.546;2023-02-13T00:59:56;102898;;;6.56;84.89
62632;BME280;48703;51.248;-0.546;2023-02-13T01:02:58;102898;;;6.54;84.98
62632;BME280;48703;51.248;-0.546;2023-02-13T01:06:00;102901;;;6.53;85.00
62632;BME280;48703;51.248;-0.546;2023-02-13T01:09:02;102903;;;6.53;84.91
62632;BME280;48703;51.248;-0.546;2023-02-13T01:12:04;102901;;;6.52;84.81
62632;BME280;48703;51.248;-0.546;2023-02-13T01:15:06;102895;;;6.50;84.87
62632;BME280;48703;51.248;-0.546;2023-02-13T01:18:08;102891;;;6.49;84.70
62632;BME280;48703;51.248;-0.546;2023-02-13T01:21:13;102889;;;6.49;84.70
62632;BME280;48703;51.248;-0.546;2023-02-13T01:24:11;102888;;;6.48;84.65
62632;BME280;48703;51.248;-0.546;2023-02-13T01:27:13;102887;;;6.47;84.41
62632;BME280;48703;51.248;-0.546;2023-02-13T01:30:16;102892;;;6.44;84.63
62632;BME280;48703;51.248;-0.546;2023-02-13T01:33:17;102894;;;6.44;84.63
62632;BME280;48703;51.248;-0.546;2023-02-13T01:36:19;102894;;;6.43;84.74
62632;BME280;48703;51.248;-0.546;2023-02-13T01:39:21;102895;;;6.41;84.45
62632;BME280;48703;51.248;-0.546;2023-02-13T01:42:24;102899;;;6.41;83.92
62632;BME280;48703;51.248;-0.546;2023-02-13T01:45:26;102899;;;6.38;83.43
62632;BME280;48703;51.248;-0.546;2023-02-13T01:48:27;102900;;;6.36;83.15
62632;BME280;48703;51.248;-0.546;2023-02-13T01:51:29;102896;;;6.33;82.79
62632;BME280;48703;51.248;-0.546;2023-02-13T01:54:31;102896;;;6.29;82.89
62632;BME280;48703;51.248;-0.546;2023-02-13T01:57:33;102893;;;6.25;83.03
62632;BME280;48703;51.248;-0.546;2023-02-13T02:00:35;102889;;;6.22;83.26
62632;BME280;48703;51.248;-0.546;2023-02-13T02:03:37;102892;;;6.21;83.38
62632;BME280;48703;51.248;-0.546;2023-02-13T02:06:39;102890;;;6.20;83.21
62632;BME280;48703;51.248;-0.546;2023-02-13T02:09:41;102887;;;6.18;83.34
62632;BME280;48703;51.248;-0.546;2023-02-13T02:12:43;102889;;;6.17;83.99
62632;BME280;48703;51.248;-0.546;2023-02-13T02:15:44;102888;;;6.15;84.39
62632;BME280;48703;51.248;-0.546;2023-02-13T02:18:46;102888;;;6.13;83.61
62632;BME280;48703;51.248;-0.546;2023-02-13T02:21:52;102890;;;6.12;83.93
62632;BME280;48703;51.248;-0.546;2023-02-13T02:25:57;102891;;;6.11;84.40
62632;BME280;48703;51.248;-0.546;2023-02-13T02:28:58;102889;;;6.11;83.65
62632;BME280;48703;51.248;-0.546;2023-02-13T02:32:05;102888;;;6.10;83.68
62632;BME280;48703;51.248;-0.546;2023-02-13T02:34:59;102888;;;6.08;83.81
62632;BME280;48703;51.248;-0.546;2023-02-13T02:38:02;102890;;;6.09;83.75
62632;BME280;48703;51.248;-0.546;2023-02-13T02:41:02;102888;;;6.09;83.64
62632;BME280;48703;51.248;-0.546;2023-02-13T02:44:05;102886;;;6.07;83.71
62632;BME280;48703;51.248;-0.546;2023-02-13T02:47:07;102884;;;6.05;84.28
62632;BME280;48703;51.248;-0.546;2023-02-13T02:50:10;102881;;;6.04;83.96
62632;BME280;48703;51.248;-0.546;2023-02-13T02:53:14;102882;;;6.02;84.47
62632;BME280;48703;51.248;-0.546;2023-02-13T02:56:10;102877;;;6.02;84.35
62632;BME280;48703;51.248;-0.546;2023-02-13T02:59:12;102878;;;6.03;84.25
62632;BME280;48703;51.248;-0.546;2023-02-13T03:02:14;102873;;;6.02;84.33
62632;BME280;48703;51.248;-0.546;2023-02-13T03:05:16;102875;;;6.01;84.54
62632;BME280;48703;51.248;-0.546;2023-02-13T03:08:17;102873;;;5.99;84.26
62632;BME280;48703;51.248;-0.546;2023-02-13T03:11:20;102873;;;5.97;84.28
62632;BME280;48703;51.248;-0.546;2023-02-13T03:14:21;102871;;;5.96;84.32
62632;BME280;48703;51.248;-0.546;2023-02-13T03:17:23;102868;;;5.95;84.09
62632;BME280;48703;51.248;-0.546;2023-02-13T03:20:29;102866;;;5.95;83.71
62632;BME280;48703;51.248;-0.546;2023-02-13T03:23:30;102862;;;5.94;83.22
62632;BME280;48703;51.248;-0.546;2023-02-13T03:26:31;102858;;;5.94;83.65
62632;BME280;48703;51.248;-0.546;2023-02-13T03:29:35;102853;;;5.93;83.41
62632;BME280;48703;51.248;-0.546;2023-02-13T03:32:35;102852;;;5.92;83.39
62632;BME280;48703;51.248;-0.546;2023-02-13T03:35:36;102850;;;5.91;83.87
62632;BME280;48703;51.248;-0.546;2023-02-13T03:38:41;102851;;;5.89;83.70
62632;BME280;48703;51.248;-0.546;2023-02-13T03:41:39;102851;;;5.89;83.77
62632;BME280;48703;51.248;-0.546;2023-02-13T03:44:42;102852;;;5.88;84.03
62632;BME280;48703;51.248;-0.546;2023-02-13T03:47:43;102851;;;5.86;83.87
62632;BME280;48703;51.248;-0.546;2023-02-13T03:50:44;102848;;;5.85;83.89
62632;BME280;48703;51.248;-0.546;2023-02-13T03:53:47;102848;;;5.83;83.82
62632;BME280;48703;51.248;-0.546;2023-02-13T03:56:48;102851;;;5.84;83.46
62632;BME280;48703;51.248;-0.546;2023-02-13T03:59:50;102852;;;5.83;83.65
62632;BME280;48703;51.248;-0.546;2023-02-13T04:02:53;102853;;;5.81;83.30
62632;BME280;48703;51.248;-0.546;2023-02-13T04:05:56;102853;;;5.82;83.23
62632;BME280;48703;51.248;-0.546;2023-02-13T04:08:56;102854;;;5.80;83.28
62632;BME280;48703;51.248;-0.546;2023-02-13T04:12:00;102850;;;5.80;83.15
62632;BME280;48703;51.248;-0.546;2023-02-13T04:15:01;102858;;;5.76;83.50
62632;BME280;48703;51.248;-0.546;2023-02-13T04:18:03;102854;;;5.76;83.30
62632;BME280;48703;51.248;-0.546;2023-02-13T04:21:04;102853;;;5.76;83.12
62632;BME280;48703;51.248;-0.546;2023-02-13T04:24:06;102850;;;5.76;83.03
62632;BME280;48703;51.248;-0.546;2023-02-13T04:27:08;102844;;;5.73;83.06
62632;BME280;48703;51.248;-0.546;2023-02-13T04:30:10;102838;;;5.73;82.97
62632;BME280;48703;51.248;-0.546;2023-02-13T04:33:11;102836;;;5.71;83.01
62632;BME280;48703;51.248;-0.546;2023-02-13T04:36:13;102840;;;5.68;82.90
62632;BME280;48703;51.248;-0.546;2023-02-13T04:39:15;102840;;;5.68;83.13
62632;BME280;48703;51.248;-0.546;2023-02-13T04:42:17;102839;;;5.67;83.02
62632;BME280;48703;51.248;-0.546;2023-02-13T04:45:19;102836;;;5.66;83.13
62632;BME280;48703;51.248;-0.546;2023-02-13T04:48:21;102833;;;5.65;83.03
62632;BME280;48703;51.248;-0.546;2023-02-13T04:51:23;102832;;;5.62;83.12
62632;BME280;48703;51.248;-0.546;2023-02-13T04:54:25;102832;;;5.62;83.18
62632;BME280;48703;51.248;-0.546;2023-02-13T04:57:27;102832;;;5.60;83.19
62632;BME280;48703;51.248;-0.546;2023-02-13T05:00:29;102830;;;5.58;83.10
62632;BME280;48703;51.248;-0.546;2023-02-13T05:03:30;102828;;;5.58;83.39
62632;BME280;48703;51.248;-0.546;2023-02-13T05:06:32;102831;;;5.57;83.39
62632;BME280;48703;51.248;-0.546;2023-02-13T05:09:34;102829;;;5.57;83.28
62632;BME280;48703;51.248;-0.546;2023-02-13T05:12:36;102825;;;5.56;83.42
62632;BME280;48703;51.248;-0.546;2023-02-13T05:15:38;102821;;;5.54;83.28
62632;BME280;48703;51.248;-0.546;2023-02-13T05:18:40;102825;;;5.53;83.59
62632;BME280;48703;51.248;-0.546;2023-02-13T05:21:42;102828;;;5.53;83.40
62632;BME280;48703;51.248;-0.546;2023-02-13T05:24:44;102832;;;5.51;83.69
62632;BME280;48703;51.248;-0.546;2023-02-13T05:27:46;102833;;;5.51;83.98
62632;BME280;48703;51.248;-0.546;2023-02-13T05:30:48;102832;;;5.51;83.82
62632;BME280;48703;51.248;-0.546;2023-02-13T05:33:50;102832;;;5.49;83.71
62632;BME280;48703;51.248;-0.546;2023-02-13T05:36:52;102830;;;5.48;84.10
62632;BME280;48703;51.248;-0.546;2023-02-13T05:39:53;102826;;;5.47;83.93
62632;BME280;48703;51.248;-0.546;2023-02-13T05:42:55;102826;;;5.45;84.03
62632;BME280;48703;51.248;-0.546;2023-02-13T05:46:01;102828;;;5.44;83.97
62632;BME280;48703;51.248;-0.546;2023-02-13T05:48:59;102828;;;5.42;84.34
62632;BME280;48703;51.248;-0.546;2023-02-13T05:52:01;102832;;;5.41;84.37
62632;BME280;48703;51.248;-0.546;2023-02-13T05:55:03;102835;;;5.39;84.56
62632;BME280;48703;51.248;-0.546;2023-02-13T05:58:05;102834;;;5.36;84.52
62632;BME280;48703;51.248;-0.546;2023-02-13T06:01:07;102828;;;5.32;84.20
62632;BME280;48703;51.248;-0.546;2023-02-13T06:04:09;102826;;;5.28;84.51
62632;BME280;48703;51.248;-0.546;2023-02-13T06:07:11;102826;;;5.28;84.33
62632;BME280;48703;51.248;-0.546;2023-02-13T06:10:13;102823;;;5.25;84.47
62632;BME280;48703;51.248;-0.546;2023-02-13T06:13:15;102819;;;5.23;84.59
62632;BME280;48703;51.248;-0.546;2023-02-13T06:16:16;102818;;;5.18;84.34
62632;BME280;48703;51.248;-0.546;2023-02-13T06:19:18;102817;;;5.15;84.22
62632;BME280;48703;51.248;-0.546;2023-02-13T06:22:20;102812;;;5.13;84.39
62632;BME280;48703;51.248;-0.546;2023-02-13T06:25:22;102812;;;5.09;84.18
62632;BME280;48703;51.248;-0.546;2023-02-13T06:28:24;102812;;;5.06;84.64
62632;BME280;48703;51.248;-0.546;2023-02-13T06:31:26;102816;;;4.99;84.36
62632;BME280;48703;51.248;-0.546;2023-02-13T06:34:28;102813;;;4.87;85.34
62632;BME280;48703;51.248;-0.546;2023-02-13T06:37:30;102814;;;4.82;85.16
62632;BME280;48703;51.248;-0.546;2023-02-13T06:40:32;102810;;;4.76;84.65
62632;BME280;48703;51.248;-0.546;2023-02-13T06:43:34;102805;;;4.69;84.85
62632;BME280;48703;51.248;-0.546;2023-02-13T06:46:36;102807;;;4.52;85.93
62632;BME280;48703;51.248;-0.546;2023-02-13T06:49:38;102809;;;4.39;86.13
62632;BME280;48703;51.248;-0.546;2023-02-13T06:52:44;102808;;;4.28;85.34
62632;BME280;48703;51.248;-0.546;2023-02-13T06:55:41;102812;;;4.19;85.79
62632;BME280;48703;51.248;-0.546;2023-02-13T06:58:43;102818;;;4.09;86.04
62632;BME280;48703;51.248;-0.546;2023-02-13T07:02:22;102822;;;4.02;86.88
62632;BME280;48703;51.248;-0.546;2023-02-13T07:04:47;102824;;;3.96;86.66
62632;BME280;48703;51.248;-0.546;2023-02-13T07:07:49;102828;;;3.95;86.57
62632;BME280;48703;51.248;-0.546;2023-02-13T07:10:51;102829;;;3.95;86.30
62632;BME280;48703;51.248;-0.546;2023-02-13T07:13:53;102831;;;3.90;86.35
62632;BME280;48703;51.248;-0.546;2023-02-13T07:16:55;102832;;;3.81;86.47
62632;BME280;48703;51.248;-0.546;2023-02-13T07:19:57;102836;;;3.75;86.80
62632;BME280;48703;51.248;-0.546;2023-02-13T07:22:59;102839;;;3.70;87.61
62632;BME280;48703;51.248;-0.546;2023-02-13T07:26:01;102838;;;3.67;86.71
62632;BME280;48703;51.248;-0.546;2023-02-13T07:29:03;102837;;;3.57;87.45
62632;BME280;48703;51.248;-0.546;2023-02-13T07:32:05;102840;;;3.53;87.84
62632;BME280;48703;51.248;-0.546;2023-02-13T07:35:07;102842;;;3.49;86.90
62632;BME280;48703;51.248;-0.546;2023-02-13T07:38:09;102843;;;3.42;87.87
62632;BME280;48703;51.248;-0.546;2023-02-13T07:41:10;102838;;;3.36;88.35
62632;BME280;48703;51.248;-0.546;2023-02-13T07:44:12;102837;;;3.37;87.86
62632;BME280;48703;51.248;-0.546;2023-02-13T07:47:14;102837;;;3.28;87.68
62632;BME280;48703;51.248;-0.546;2023-02-13T07:50:16;102838;;;3.24;87.92
62632;BME280;48703;51.248;-0.546;2023-02-13T07:53:18;102839;;;3.22;87.74
62632;BME280;48703;51.248;-0.546;2023-02-13T07:56:20;102840;;;3.13;87.91
62632;BME280;48703;51.248;-0.546;2023-02-13T07:59:22;102837;;;3.11;88.21
62632;BME280;48703;51.248;-0.546;2023-02-13T08:02:24;102837;;;3.09;87.54
62632;BME280;48703;51.248;-0.546;2023-02-13T08:05:26;102835;;;3.08;88.17
62632;BME280;48703;51.248;-0.546;2023-02-13T08:08:28;102830;;;3.09;88.42
62632;BME280;48703;51.248;-0.546;2023-02-13T08:11:30;102827;;;3.08;89.02
62632;BME280;48703;51.248;-0.546;2023-02-13T08:14:31;102825;;;3.08;88.97
62632;BME280;48703;51.248;-0.546;2023-02-13T08:17:33;102823;;;3.06;88.46
62632;BME280;48703;51.248;-0.546;2023-02-13T08:20:35;102824;;;3.02;88.68
62632;BME280;48703;51.248;-0.546;2023-02-13T08:23:37;102825;;;2.99;88.73
62632;BME280;48703;51.248;-0.546;2023-02-13T08:26:39;102824;;;2.96;90.02
62632;BME280;48703;51.248;-0.546;2023-02-13T08:29:41;102823;;;2.98;90.04
62632;BME280;48703;51.248;-0.546;2023-02-13T08:32:43;102824;;;3.00;89.33
62632;BME280;48703;51.248;-0.546;2023-02-13T08:35:45;102830;;;3.06;89.08
62632;BME280;48703;51.248;-0.546;2023-02-13T08:38:47;102831;;;3.12;88.72
62632;BME280;48703;51.248;-0.546;2023-02-13T08:41:49;102834;;;3.14;89.27
62632;BME280;48703;51.248;-0.546;2023-02-13T08:44:51;102832;;;3.20;89.33
62632;BME280;48703;51.248;-0.546;2023-02-13T08:47:54;102831;;;3.26;89.42
62632;BME280;48703;51.248;-0.546;2023-02-13T08:50:55;102832;;;3.29;89.55
62632;BME280;48703;51.248;-0.546;2023-02-13T08:53:57;102827;;;3.32;89.19
62632;BME280;48703;51.248;-0.546;2023-02-13T08:56:58;102823;;;3.32;89.23
62632;BME280;48703;51.248;-0.546;2023-02-13T09:00:01;102825;;;3.33;89.28
62632;BME280;48703;51.248;-0.546;2023-02-13T09:03:03;102821;;;3.35;89.87
62632;BME280;48703;51.248;-0.546;2023-02-13T09:06:04;102814;;;3.38;89.80
62632;BME280;48703;51.248;-0.546;2023-02-13T09:09:06;102810;;;3.40;89.89
62632;BME280;48703;51.248;-0.546;2023-02-13T09:12:08;102807;;;3.44;90.72
62632;BME280;48703;51.248;-0.546;2023-02-13T09:15:10;102803;;;3.48;90.24
62632;BME280;48703;51.248;-0.546;2023-02-13T09:18:12;102805;;;3.53;90.49
62632;BME280;48703;51.248;-0.546;2023-02-13T09:21:17;102805;;;3.61;90.38
62632;BME280;48703;51.248;-0.546;2023-02-13T09:24:16;102807;;;3.70;90.42
62632;BME280;48703;51.248;-0.546;2023-02-13T09:27:18;102812;;;3.77;90.30
62632;BME280;48703;51.248;-0.546;2023-02-13T09:30:20;102811;;;3.86;90.00
62632;BME280;48703;51.248;-0.546;2023-02-13T09:33:22;102807;;;3.93;89.54
62632;BME280;48703;51.248;-0.546;2023-02-13T09:36:24;102805;;;3.99;89.59
62632;BME280;48703;51.248;-0.546;2023-02-13T09:39:25;102800;;;4.04;89.78
62632;BME280;48703;51.248;-0.546;2023-02-13T09:42:28;102795;;;4.12;89.65
62632;BME280;48703;51.248;-0.546;2023-02-13T09:45:30;102797;;;4.20;89.83
62632;BME280;48703;51.248;-0.546;2023-02-13T09:48:32;102798;;;4.30;90.54
62632;BME280;48703;51.248;-0.546;2023-02-13T09:51:33;102795;;;4.42;91.23
62632;BME280;48703;51.248;-0.546;2023-02-13T09:54:35;102798;;;4.55;91.33
62632;BME280;48703;51.248;-0.546;2023-02-13T09:57:39;102796;;;4.66;90.82
62632;BME280;48703;51.248;-0.546;2023-02-13T10:00:40;102798;;;4.77;90.94
62632;BME280;48703;51.248;-0.546;2023-02-13T10:03:42;102796;;;4.88;91.25
62632;BME280;48703;51.248;-0.546;2023-02-13T10:06:43;102802;;;4.99;90.94
62632;BME280;48703;51.248;-0.546;2023-02-13T10:09:47;102804;;;5.06;90.48
62632;BME280;48703;51.248;-0.546;2023-02-13T10:12:52;102802;;;5.13;89.86
62632;BME280;48703;51.248;-0.546;2023-02-13T10:15:50;102802;;;5.19;89.42
62632;BME280;48703;51.248;-0.546;2023-02-13T10:18:51;102804;;;5.23;89.16
62632;BME280;48703;51.248;-0.546;2023-02-13T10:21:53;102806;;;5.26;89.05
62632;BME280;48703;51.248;-0.546;2023-02-13T10:24:55;102802;;;5.34;89.11
62632;BME280;48703;51.248;-0.546;2023-02-13T10:27:57;102804;;;5.40;88.75
62632;BME280;48703;51.248;-0.546;2023-02-13T10:31:00;102802;;;5.48;89.32
62632;BME280;48703;51.248;-0.546;2023-02-13T10:34:01;102807;;;5.54;89.28
62632;BME280;48703;51.248;-0.546;2023-02-13T10:37:02;102808;;;5.60;89.64
62632;BME280;48703;51.248;-0.546;2023-02-13T10:40:04;102808;;;5.68;89.46
62632;BME280;48703;51.248;-0.546;2023-02-13T10:43:06;102807;;;5.78;89.60
62632;BME280;48703;51.248;-0.546;2023-02-13T10:46:10;102805;;;5.87;89.40
62632;BME280;48703;51.248;-0.546;2023-02-13T10:49:20;102804;;;5.94;89.12
62632;BME280;48703;51.248;-0.546;2023-02-13T10:52:16;102800;;;6.01;89.13
62632;BME280;48703;51.248;-0.546;2023-02-13T10:55:18;102798;;;6.05;88.64
62632;BME280;48703;51.248;-0.546;2023-02-13T10:58:17;102798;;;6.11;88.56
62632;BME280;48703;51.248;-0.546;2023-02-13T11:01:18;102794;;;6.19;88.48
62632;BME280;48703;51.248;-0.546;2023-02-13T11:04:19;102787;;;6.27;88.19
62632;BME280;48703;51.248;-0.546;2023-02-13T11:07:22;102785;;;6.34;88.07
62632;BME280;48703;51.248;-0.546;2023-02-13T11:10:25;102786;;;6.42;87.94
62632;BME280;48703;51.248;-0.546;2023-02-13T11:13:26;102785;;;6.49;87.71
62632;BME280;48703;51.248;-0.546;2023-02-13T11:16:27;102785;;;6.54;87.66
62632;BME280;48703;51.248;-0.546;2023-02-13T11:19:30;102784;;;6.60;87.31
62632;BME280;48703;51.248;-0.546;2023-02-13T11:22:32;102783;;;6.68;87.17
62632;BME280;48703;51.248;-0.546;2023-02-13T11:25:33;102781;;;6.74;87.36
62632;BME280;48703;51.248;-0.546;2023-02-13T11:28:36;102778;;;6.81;87.02
62632;BME280;48703;51.248;-0.546;2023-02-13T11:31:37;102773;;;6.87;87.19
62632;BME280;48703;51.248;-0.546;2023-02-13T11:34:39;102768;;;6.94;86.85
62632;BME280;48703;51.248;-0.546;2023-02-13T11:37:41;102764;;;7.00;86.55
62632;BME280;48703;51.248;-0.546;2023-02-13T11:40:43;102763;;;7.07;86.34
62632;BME280;48703;51.248;-0.546;2023-02-13T11:43:45;102762;;;7.13;85.74
62632;BME280;48703;51.248;-0.546;2023-02-13T11:46:47;102761;;;7.19;85.60
62632;BME280;48703;51.248;-0.546;2023-02-13T11:49:48;102758;;;7.25;85.78
62632;BME280;48703;51.248;-0.546;2023-02-13T11:52:52;102753;;;7.34;85.75
62632;BME280;48703;51.248;-0.546;2023-02-13T11:56:00;102745;;;7.41;85.63
62632;BME280;48703;51.248;-0.546;2023-02-13T11:58:59;102740;;;7.49;85.66
62632;BME280;48703;51.248;-0.546;2023-02-13T12:02:00;102732;;;7.56;85.25
62632;BME280;48703;51.248;-0.546;2023-02-13T12:05:13;102726;;;7.62;84.65
62632;BME280;48703;51.248;-0.546;2023-02-13T12:08:00;102724;;;7.71;85.40
62632;BME280;48703;51.248;-0.546;2023-02-13T12:11:03;102719;;;7.79;84.85
62632;BME280;48703;51.248;-0.546;2023-02-13T12:14:04;102719;;;7.85;84.29
62632;BME280;48703;51.248;-0.546;2023-02-13T12:17:06;102720;;;7.92;84.40
62632;BME280;48703;51.248;-0.546;2023-02-13T12:20:10;102720;;;8.00;84.17
62632;BME280;48703;51.248;-0.546;2023-02-13T12:23:12;102715;;;8.08;83.83
62632;BME280;48703;51.248;-0.546;2023-02-13T12:26:16;102713;;;8.17;83.80
62632;BME280;48703;51.248;-0.546;2023-02-13T12:29:19;102711;;;8.25;83.32
62632;BME280;48703;51.248;-0.546;2023-02-13T12:32:17;102710;;;8.31;83.02
62632;BME280;48703;51.248;-0.546;2023-02-13T12:35:26;102709;;;8.37;82.85
62632;BME280;48703;51.248;-0.546;2023-02-13T12:38:23;102709;;;8.43;82.43
62632;BME280;48703;51.248;-0.546;2023-02-13T12:41:21;102709;;;8.51;82.08
62632;BME280;48703;51.248;-0.546;2023-02-13T12:44:27;102707;;;8.62;82.72
62632;BME280;48703;51.248;-0.546;2023-02-13T12:47:25;102708;;;8.69;82.12
62632;BME280;48703;51.248;-0.546;2023-02-13T12:50:29;102711;;;8.77;82.34
62632;BME280;48703;51.248;-0.546;2023-02-13T12:53:48;102704;;;8.83;82.06
62632;BME280;48703;51.248;-0.546;2023-02-13T12:56:36;102699;;;8.89;82.46
62632;BME280;48703;51.248;-0.546;2023-02-13T12:59:36;102696;;;8.94;81.98
62632;BME280;48703;51.248;-0.546;2023-02-13T13:02:43;102690;;;8.99;81.89
62632;BME280;48703;51.248;-0.546;2023-02-13T13:05:41;102686;;;9.04;81.74
62632;BME280;48703;51.248;-0.546;2023-02-13T13:08:42;102686;;;9.11;81.49
62632;BME280;48703;51.248;-0.546;2023-02-13T13:11:45;102681;;;9.16;81.14
62632;BME280;48703;51.248;-0.546;2023-02-13T13:14:44;102670;;;9.22;81.07
62632;BME280;48703;51.248;-0.546;2023-02-13T13:17:48;102667;;;9.29;81.32
62632;BME280;48703;51.248;-0.546;2023-02-13T13:20:50;102665;;;9.36;81.07
62632;BME280;48703;51.248;-0.546;2023-02-13T13:23:49;102661;;;9.44;80.81
62632;BME280;48703;51.248;-0.546;2023-02-13T13:26:50;102657;;;9.51;80.68
62632;BME280;48703;51.248;-0.546;2023-02-13T13:29:53;102653;;;9.57;80.09
62632;BME280;48703;51.248;-0.546;2023-02-13T13:32:55;102646;;;9.59;79.47
62632;BME280;48703;51.248;-0.546;2023-02-13T13:35:58;102644;;;9.65;79.70
62632;BME280;48703;51.248;-0.546;2023-02-13T13:38:59;102643;;;9.73;79.56
62632;BME280;48703;51.248;-0.546;2023-02-13T13:42:03;102641;;;9.81;80.05
62632;BME280;48703;51.248;-0.546;2023-02-13T13:45:07;102639;;;9.88;79.65
62632;BME280;48703;51.248;-0.546;2023-02-13T13:48:08;102639;;;9.95;79.76
62632;BME280;48703;51.248;-0.546;2023-02-13T13:51:05;102638;;;10.04;79.21
62632;BME280;48703;51.248;-0.546;2023-02-13T13:54:17;102638;;;10.12;79.34
62632;BME280;48703;51.248;-0.546;2023-02-13T13:57:10;102637;;;10.19;78.89
62632;BME280;48703;51.248;-0.546;2023-02-13T14:03:22;102633;;;10.33;77.57
62632;BME280;48703;51.248;-0.546;2023-02-13T14:06:15;102631;;;10.40;77.49
62632;BME280;48703;51.248;-0.546;2023-02-13T14:09:49;102624;;;10.44;77.51
62632;BME280;48703;51.248;-0.546;2023-02-13T14:12:35;102623;;;10.51;78.00
62632;BME280;48703;51.248;-0.546;2023-02-13T14:15:53;102625;;;10.58;77.80
62632;BME280;48703;51.248;-0.546;2023-02-13T14:18:23;102624;;;10.67;77.62
62632;BME280;48703;51.248;-0.546;2023-02-13T14:21:25;102624;;;10.74;76.30
62632;BME280;48703;51.248;-0.546;2023-02-13T14:24:27;102621;;;10.80;76.71
62632;BME280;48703;51.248;-0.546;2023-02-13T14:27:29;102614;;;10.87;76.93
62632;BME280;48703;51.248;-0.546;2023-02-13T14:30:31;102608;;;10.92;76.47
62632;BME280;48703;51.248;-0.546;2023-02-13T14:33:32;102605;;;11.00;76.98
62632;BME280;48703;51.248;-0.546;2023-02-13T14:36:35;102602;;;11.09;76.86
62632;BME280;48703;51.248;-0.546;2023-02-13T14:39:36;102601;;;11.14;76.02
62632;BME280;48703;51.248;-0.546;2023-02-13T14:42:38;102600;;;11.18;76.32
62632;BME280;48703;51.248;-0.546;2023-02-13T14:45:44;102600;;;11.26;76.14
62632;BME280;48703;51.248;-0.546;2023-02-13T14:48:44;102597;;;11.30;75.20
62632;BME280;48703;51.248;-0.546;2023-02-13T14:51:44;102598;;;11.36;76.23
62632;BME280;48703;51.248;-0.546;2023-02-13T14:54:47;102599;;;11.41;74.71
62632;BME280;48703;51.248;-0.546;2023-02-13T14:57:49;102600;;;11.43;74.28
62632;BME280;48703;51.248;-0.546;2023-02-13T15:00:51;102599;;;11.45;74.41
62632;BME280;48703;51.248;-0.546;2023-02-13T15:03:53;102596;;;11.48;73.39
62632;BME280;48703;51.248;-0.546;2023-02-13T15:06:54;102596;;;11.51;74.58
62632;BME280;48703;51.248;-0.546;2023-02-13T15:09:57;102598;;;11.55;74.32
62632;BME280;48703;51.248;-0.546;2023-02-13T15:12:58;102597;;;11.59;73.96
62632;BME280;48703;51.248;-0.546;2023-02-13T15:16:00;102597;;;11.63;73.71
62632;BME280;48703;51.248;-0.546;2023-02-13T15:19:01;102597;;;11.65;72.74
62632;BME280;48703;51.248;-0.546;2023-02-13T15:22:03;102595;;;11.69;73.54
62632;BME280;48703;51.248;-0.546;2023-02-13T15:25:06;102594;;;11.71;72.67
62632;BME280;48703;51.248;-0.546;2023-02-13T15:28:07;102589;;;11.73;73.44
62632;BME280;48703;51.248;-0.546;2023-02-13T15:31:18;102585;;;11.77;73.24
62632;BME280;48703;51.248;-0.546;2023-02-13T15:34:27;102585;;;11.78;72.22
62632;BME280;48703;51.248;-0.546;2023-02-13T15:37:18;102583;;;11.80;73.09
62632;BME280;48703;51.248;-0.546;2023-02-13T15:40:16;102582;;;11.79;71.64
62632;BME280;48703;51.248;-0.546;2023-02-13T15:43:19;102579;;;11.78;71.66
62632;BME280;48703;51.248;-0.546;2023-02-13T15:46:19;102578;;;11.76;72.43
62632;BME280;48703;51.248;-0.546;2023-02-13T15:49:21;102581;;;11.73;71.73
62632;BME280;48703;51.248;-0.546;2023-02-13T15:52:25;102580;;;11.67;71.40
62632;BME280;48703;51.248;-0.546;2023-02-13T15:55:25;102575;;;11.61;70.78
62632;BME280;48703;51.248;-0.546;2023-02-13T15:58:28;102574;;;11.55;72.13
62632;BME280;48703;51.248;-0.546;2023-02-13T16:01:28;102572;;;11.51;72.03
62632;BME280;48703;51.248;-0.546;2023-02-13T16:04:30;102574;;;11.46;72.43
62632;BME280;48703;51.248;-0.546;2023-02-13T16:07:44;102574;;;11.40;72.49
62632;BME280;48703;51.248;-0.546;2023-02-13T16:10:34;102579;;;11.35;71.46
62632;BME280;48703;51.248;-0.546;2023-02-13T16:13:36;102579;;;11.29;71.65
62632;BME280;48703;51.248;-0.546;2023-02-13T16:16:42;102576;;;11.21;72.12
62632;BME280;48703;51.248;-0.546;2023-02-13T16:19:41;102581;;;11.14;70.78
62632;BME280;48703;51.248;-0.546;2023-02-13T16:22:42;102578;;;11.04;71.44
62632;BME280;48703;51.248;-0.546;2023-02-13T16:25:44;102575;;;10.97;72.43
62632;BME280;48703;51.248;-0.546;2023-02-13T16:28:46;102575;;;10.88;72.23
62632;BME280;48703;51.248;-0.546;2023-02-13T16:31:48;102576;;;10.80;71.84